Terminal Aerodrome Forecast
Issued by NWS Twin Cities, MN

Home | Current Version | Previous Version | Graphics & Text | Print | Product List | Glossary On
Versions: 1 2 3 4 5 6 7 8 9 10 11 12 13 14 15 16 17 18 19
000
FTUS43 KMPX 242344
TAFSTC
TAF
KSTC 242344Z 2500/2524 03003KT P6SM FEW110 BKN250
     FM250200 VRB03KT P6SM BKN030 OVC050
     FM250400 04005KT 3SM -SN OVC012
     FM250600 03010KT P6SM -SN SCT007 OVC025
     FM250800 03009KT P6SM BKN025
     FM251300 03008KT P6SM SCT025=

USA.gov is the U.S. government's official web portal to all federal, state and local government web resources and services.